sensor_id;sensor_type;location;lat;lon;timestamp;pressure;altitude;pressure_sealevel;temperature;humidity
30897;BME280;64229;52.246;21.054;2024-03-23T00:54:01;99735.59;;;9.58;100.00
30897;BME280;64229;52.246;21.054;2024-03-23T00:56:26;99723.84;;;9.64;100.00
30897;BME280;64229;52.246;21.054;2024-03-23T00:58:52;99718.53;;;9.54;100.00
30897;BME280;64229;52.246;21.054;2024-03-23T01:01:17;99718.31;;;9.45;100.00
30897;BME280;64229;52.246;21.054;2024-03-23T01:03:42;99714.88;;;9.40;100.00
30897;BME280;64229;52.246;21.054;2024-03-23T01:06:08;99708.97;;;9.58;100.00
30897;BME280;64229;52.246;21.054;2024-03-23T01:08:33;99703.88;;;9.62;100.00
30897;BME280;64229;52.246;21.054;2024-03-23T01:10:59;99709.97;;;9.67;100.00
30897;BME280;64229;52.246;21.054;2024-03-23T01:13:26;99706.03;;;9.60;100.00
30897;BME280;64229;52.246;21.054;2024-03-23T01:15:51;99702.56;;;9.59;100.00
30897;BME280;64229;52.246;21.054;2024-03-23T01:18:20;99699.09;;;9.53;100.00
30897;BME280;64229;52.246;21.054;2024-03-23T01:20:46;99706.84;;;9.50;100.00
30897;BME280;64229;52.246;21.054;2024-03-23T01:23:12;99701.03;;;9.38;100.00
30897;BME280;64229;52.246;21.054;2024-03-23T01:25:37;99686.38;;;9.40;100.00
30897;BME280;64229;52.246;21.054;2024-03-23T01:28:03;99682.63;;;9.41;100.00
30897;BME280;64229;52.246;21.054;2024-03-23T01:30:29;99685.88;;;9.28;100.00
30897;BME280;64229;52.246;21.054;2024-03-23T01:32:55;99687.44;;;9.39;100.00
30897;BME280;64229;52.246;21.054;2024-03-23T01:35:20;99686.38;;;9.40;100.00
30897;BME280;64229;52.246;21.054;2024-03-23T01:37:46;99685.81;;;9.48;100.00
30897;BME280;64229;52.246;21.054;2024-03-23T01:40:11;99688.25;;;9.30;100.00
30897;BME280;64229;52.246;21.054;2024-03-23T01:42:39;99692.56;;;9.15;100.00
30897;BME280;64229;52.246;21.054;2024-03-23T01:45:07;99695.75;;;9.12;100.00
30897;BME280;64229;52.246;21.054;2024-03-23T01:47:32;99682.91;;;9.40;100.00
30897;BME280;64229;52.246;21.054;2024-03-23T01:49:58;99689.59;;;9.22;100.00
30897;BME280;64229;52.246;21.054;2024-03-23T01:52:24;99675.75;;;9.25;100.00
30897;BME280;64229;52.246;21.054;2024-03-23T01:54:50;99656.56;;;9.38;100.00
30897;BME280;64229;52.246;21.054;2024-03-23T01:57:15;99672.81;;;9.32;100.00
30897;BME280;64229;52.246;21.054;2024-03-23T01:59:41;99664.25;;;9.40;100.00
30897;BME280;64229;52.246;21.054;2024-03-23T02:02:06;99671.66;;;9.53;100.00
30897;BME280;64229;52.246;21.054;2024-03-23T02:04:31;99669.88;;;9.33;100.00
30897;BME280;64229;52.246;21.054;2024-03-23T02:06:56;99667.50;;;9.26;100.00
30897;BME280;64229;52.246;21.054;2024-03-23T02:09:22;99668.59;;;9.15;100.00
30897;BME280;64229;52.246;21.054;2024-03-23T02:11:47;99655.25;;;9.25;100.00
30897;BME280;64229;52.246;21.054;2024-03-23T02:14:12;99665.16;;;9.15;100.00
30897;BME280;64229;52.246;21.054;2024-03-23T02:16:38;99662.50;;;8.99;100.00
30897;BME280;64229;52.246;21.054;2024-03-23T02:19:03;99660.88;;;9.14;100.00
30897;BME280;64229;52.246;21.054;2024-03-23T02:21:28;99657.69;;;9.07;100.00
30897;BME280;64229;52.246;21.054;2024-03-23T02:23:56;99664.91;;;8.91;100.00
30897;BME280;64229;52.246;21.054;2024-03-23T02:26:22;99654.50;;;8.99;100.00
30897;BME280;64229;52.246;21.054;2024-03-23T02:28:47;99651.84;;;9.10;100.00
30897;BME280;64229;52.246;21.054;2024-03-23T02:31:12;99651.56;;;9.16;100.00
30897;BME280;64229;52.246;21.054;2024-03-23T02:33:38;99639.84;;;9.17;100.00
30897;BME280;64229;52.246;21.054;2024-03-23T02:36:03;99643.53;;;9.26;100.00
30897;BME280;64229;52.246;21.054;2024-03-23T02:38:29;99642.19;;;9.29;100.00
30897;BME280;64229;52.246;21.054;2024-03-23T02:40:54;99643.25;;;9.33;100.00
30897;BME280;64229;52.246;21.054;2024-03-23T02:43:19;99644.63;;;9.20;100.00
30897;BME280;64229;52.246;21.054;2024-03-23T02:45:45;99618.56;;;9.02;100.00
30897;BME280;64229;52.246;21.054;2024-03-23T02:48:10;99645.41;;;9.21;100.00
30897;BME280;64229;52.246;21.054;2024-03-23T02:50:35;99634.22;;;9.29;100.00
30897;BME280;64229;52.246;21.054;2024-03-23T02:53:01;99630.75;;;9.23;100.00
30897;BME280;64229;52.246;21.054;2024-03-23T02:55:26;99635.84;;;9.20;100.00
30897;BME280;64229;52.246;21.054;2024-03-23T02:57:52;99635.31;;;9.18;100.00
30897;BME280;64229;52.246;21.054;2024-03-23T03:00:17;99614.19;;;9.42;100.00
30897;BME280;64229;52.246;21.054;2024-03-23T03:02:42;99624.06;;;9.36;100.00
30897;BME280;64229;52.246;21.054;2024-03-23T03:05:08;99621.13;;;9.38;100.00
30897;BME280;64229;52.246;21.054;2024-03-23T03:07:34;99625.41;;;9.28;100.00
30897;BME280;64229;52.246;21.054;2024-03-23T03:09:59;99614.03;;;9.08;100.00
30897;BME280;64229;52.246;21.054;2024-03-23T03:12:24;99591.97;;;8.97;100.00
30897;BME280;64229;52.246;21.054;2024-03-23T03:14:50;99606.78;;;9.23;100.00
30897;BME280;64229;52.246;21.054;2024-03-23T03:17:15;99599.50;;;9.44;100.00
30897;BME280;64229;52.246;21.054;2024-03-23T03:19:40;99606.75;;;9.39;100.00
30897;BME280;64229;52.246;21.054;2024-03-23T03:22:06;99604.91;;;9.24;100.00
30897;BME280;64229;52.246;21.054;2024-03-23T03:24:31;99606.31;;;9.01;100.00
30897;BME280;64229;52.246;21.054;2024-03-23T03:26:56;99607.66;;;9.09;100.00
30897;BME280;64229;52.246;21.054;2024-03-23T03:29:23;99607.09;;;9.12;100.00
30897;BME280;64229;52.246;21.054;2024-03-23T03:31:48;99603.63;;;9.16;100.00
30897;BME280;64229;52.246;21.054;2024-03-23T03:34:15;99602.44;;;9.43;100.00
30897;BME280;64229;52.246;21.054;2024-03-23T03:36:40;99612.66;;;9.20;100.00
30897;BME280;64229;52.246;21.054;2024-03-23T03:39:05;99611.34;;;9.13;100.00
30897;BME280;64229;52.246;21.054;2024-03-23T03:41:31;99606.78;;;9.28;100.00
30897;BME280;64229;52.246;21.054;2024-03-23T03:43:57;99609.13;;;9.35;100.00
30897;BME280;64229;52.246;21.054;2024-03-23T03:46:26;99610.72;;;9.41;100.00
30897;BME280;64229;52.246;21.054;2024-03-23T03:48:51;99607.13;;;9.07;100.00
30897;BME280;64229;52.246;21.054;2024-03-23T03:51:17;99615.63;;;9.04;100.00
30897;BME280;64229;52.246;21.054;2024-03-23T03:53:42;99607.06;;;9.27;100.00
30897;BME280;64229;52.246;21.054;2024-03-23T03:56:07;99607.56;;;9.29;100.00
30897;BME280;64229;52.246;21.054;2024-03-23T03:58:32;99603.84;;;9.30;100.00
30897;BME280;64229;52.246;21.054;2024-03-23T04:00:58;99614.81;;;9.13;100.00
30897;BME280;64229;52.246;21.054;2024-03-23T04:03:23;99598.91;;;8.98;100.00
30897;BME280;64229;52.246;21.054;2024-03-23T04:05:54;99602.00;;;9.20;100.00
30897;BME280;64229;52.246;21.054;2024-03-23T04:08:20;99595.38;;;9.18;100.00
30897;BME280;64229;52.246;21.054;2024-03-23T04:10:46;99601.28;;;8.99;100.00
30897;BME280;64229;52.246;21.054;2024-03-23T04:13:15;99599.09;;;9.12;100.00
30897;BME280;64229;52.246;21.054;2024-03-23T04:15:40;99595.38;;;9.13;100.00
30897;BME280;64229;52.246;21.054;2024-03-23T04:18:05;99594.63;;;9.07;100.00
30897;BME280;64229;52.246;21.054;2024-03-23T04:20:31;99588.78;;;9.05;100.00
30897;BME280;64229;52.246;21.054;2024-03-23T04:22:57;99589.53;;;9.11;100.00
30897;BME280;64229;52.246;21.054;2024-03-23T04:25:22;99583.13;;;9.17;100.00
30897;BME280;64229;52.246;21.054;2024-03-23T04:27:48;99572.00;;;9.05;100.00
30897;BME280;64229;52.246;21.054;2024-03-23T04:30:13;99572.25;;;9.03;100.00
30897;BME280;64229;52.246;21.054;2024-03-23T04:32:39;99579.44;;;9.08;100.00
30897;BME280;64229;52.246;21.054;2024-03-23T04:35:05;99571.09;;;9.30;100.00
30897;BME280;64229;52.246;21.054;2024-03-23T04:37:37;99570.06;;;9.20;100.00
30897;BME280;64229;52.246;21.054;2024-03-23T04:40:03;99567.41;;;9.20;100.00
30897;BME280;64229;52.246;21.054;2024-03-23T04:42:29;99565.47;;;9.36;100.00
30897;BME280;64229;52.246;21.054;2024-03-23T04:44:54;99549.88;;;9.09;100.00
30897;BME280;64229;52.246;21.054;2024-03-23T04:47:20;99567.16;;;9.12;100.00
30897;BME280;64229;52.246;21.054;2024-03-23T04:49:45;99566.66;;;9.15;100.00
30897;BME280;64229;52.246;21.054;2024-03-23T04:52:10;99558.41;;;9.06;100.00
30897;BME280;64229;52.246;21.054;2024-03-23T04:54:36;99553.53;;;9.28;100.00
30897;BME280;64229;52.246;21.054;2024-03-23T04:57:01;99556.94;;;9.39;100.00
30897;BME280;64229;52.246;21.054;2024-03-23T04:59:26;99552.34;;;9.50;100.00
30897;BME280;64229;52.246;21.054;2024-03-23T05:01:52;99520.97;;;9.42;100.00
30897;BME280;64229;52.246;21.054;2024-03-23T05:04:17;99534.09;;;9.28;100.00
30897;BME280;64229;52.246;21.054;2024-03-23T05:06:42;99533.88;;;9.14;100.00
30897;BME280;64229;52.246;21.054;2024-03-23T05:09:08;99535.97;;;9.22;100.00
30897;BME280;64229;52.246;21.054;2024-03-23T05:11:37;99549.00;;;9.29;100.00
30897;BME280;64229;52.246;21.054;2024-03-23T05:14:02;99539.69;;;9.21;100.00
30897;BME280;64229;52.246;21.054;2024-03-23T05:16:28;99542.59;;;9.25;100.00
30897;BME280;64229;52.246;21.054;2024-03-23T05:18:53;99551.47;;;9.15;100.00
30897;BME280;64229;52.246;21.054;2024-03-23T05:21:18;99549.78;;;9.30;100.00
30897;BME280;64229;52.246;21.054;2024-03-23T05:23:44;99551.78;;;9.53;100.00
30897;BME280;64229;52.246;21.054;2024-03-23T05:26:09;99551.38;;;9.75;100.00
30897;BME280;64229;52.246;21.054;2024-03-23T05:28:35;99547.69;;;9.71;100.00
30897;BME280;64229;52.246;21.054;2024-03-23T05:31:00;99544.25;;;9.65;100.00
30897;BME280;64229;52.246;21.054;2024-03-23T05:33:25;99541.69;;;9.50;100.00
30897;BME280;64229;52.246;21.054;2024-03-23T05:35:58;99535.41;;;9.31;100.00
30897;BME280;64229;52.246;21.054;2024-03-23T05:38:24;99531.84;;;9.50;100.00
30897;BME280;64229;52.246;21.054;2024-03-23T05:40:54;99537.13;;;9.55;100.00
30897;BME280;64229;52.246;21.054;2024-03-23T05:43:19;99536.81;;;9.62;100.00
30897;BME280;64229;52.246;21.054;2024-03-23T05:45:44;99542.19;;;9.57;100.00
30897;BME280;64229;52.246;21.054;2024-03-23T05:48:09;99535.56;;;9.49;100.00
30897;BME280;64229;52.246;21.054;2024-03-23T05:50:35;99532.34;;;9.52;100.00
30897;BME280;64229;52.246;21.054;2024-03-23T05:53:00;99536.81;;;9.62;100.00
30897;BME280;64229;52.246;21.054;2024-03-23T05:55:25;99529.78;;;9.32;100.00
30897;BME280;64229;52.246;21.054;2024-03-23T05:57:52;99522.38;;;9.24;100.00
30897;BME280;64229;52.246;21.054;2024-03-23T06:00:18;99527.50;;;9.15;100.00
30897;BME280;64229;52.246;21.054;2024-03-23T06:02:43;99522.38;;;9.29;100.00
30897;BME280;64229;52.246;21.054;2024-03-23T06:05:10;99532.97;;;9.34;100.00
30897;BME280;64229;52.246;21.054;2024-03-23T06:07:35;99510.91;;;9.28;100.00
30897;BME280;64229;52.246;21.054;2024-03-23T06:10:01;99514.84;;;9.41;100.00
30897;BME280;64229;52.246;21.054;2024-03-23T06:12:26;99517.72;;;9.45;100.00
30897;BME280;64229;52.246;21.054;2024-03-23T06:14:51;99511.94;;;9.38;100.00
30897;BME280;64229;52.246;21.054;2024-03-23T06:17:17;99516.72;;;9.36;100.00
30897;BME280;64229;52.246;21.054;2024-03-23T06:19:43;99526.50;;;9.50;100.00
30897;BME280;64229;52.246;21.054;2024-03-23T06:22:08;99528.00;;;9.67;100.00
30897;BME280;64229;52.246;21.054;2024-03-23T06:24:33;99526.31;;;9.76;100.00
30897;BME280;64229;52.246;21.054;2024-03-23T06:26:58;99521.13;;;9.55;100.00
30897;BME280;64229;52.246;21.054;2024-03-23T06:29:24;99522.25;;;9.49;100.00
30897;BME280;64229;52.246;21.054;2024-03-23T06:31:55;99508.13;;;9.49;100.00
30897;BME280;64229;52.246;21.054;2024-03-23T06:34:21;99505.19;;;9.50;100.00
30897;BME280;64229;52.246;21.054;2024-03-23T06:36:49;99514.25;;;9.49;100.00
30897;BME280;64229;52.246;21.054;2024-03-23T06:39:15;99508.72;;;9.41;100.00
30897;BME280;64229;52.246;21.054;2024-03-23T06:41:42;99499.09;;;9.45;100.00
30897;BME280;64229;52.246;21.054;2024-03-23T06:44:07;99506.22;;;9.54;100.00
30897;BME280;64229;52.246;21.054;2024-03-23T06:46:32;99509.91;;;9.64;100.00
30897;BME280;64229;52.246;21.054;2024-03-23T06:48:58;99506.06;;;9.80;100.00
30897;BME280;64229;52.246;21.054;2024-03-23T06:51:23;99498.00;;;9.90;100.00
30897;BME280;64229;52.246;21.054;2024-03-23T06:53:49;99486.63;;;9.74;100.00
30897;BME280;64229;52.246;21.054;2024-03-23T06:56:15;99487.03;;;9.57;100.00
30897;BME280;64229;52.246;21.054;2024-03-23T06:58:40;99476.97;;;9.49;100.00
30897;BME280;64229;52.246;21.054;2024-03-23T07:01:05;99479.06;;;9.52;100.00
30897;BME280;64229;52.246;21.054;2024-03-23T07:03:30;99480.59;;;9.64;100.00
30897;BME280;64229;52.246;21.054;2024-03-23T07:05:59;99483.03;;;9.60;100.00
30897;BME280;64229;52.246;21.054;2024-03-23T07:08:24;99482.38;;;9.73;100.00
30897;BME280;64229;52.246;21.054;2024-03-23T07:10:49;99454.50;;;9.61;100.00
30897;BME280;64229;52.246;21.054;2024-03-23T07:13:15;99482.47;;;9.63;100.00
30897;BME280;64229;52.246;21.054;2024-03-23T07:15:40;99482.47;;;9.63;100.00
30897;BME280;64229;52.246;21.054;2024-03-23T07:18:05;99472.03;;;9.67;100.00
30897;BME280;64229;52.246;21.054;2024-03-23T07:20:31;99466.16;;;9.70;100.00
30897;BME280;64229;52.246;21.054;2024-03-23T07:22:56;99461.72;;;9.60;100.00
30897;BME280;64229;52.246;21.054;2024-03-23T07:25:22;99471.69;;;9.78;100.00
30897;BME280;64229;52.246;21.054;2024-03-23T07:27:48;99473.47;;;9.88;100.00
30897;BME280;64229;52.246;21.054;2024-03-23T07:30:14;99468.75;;;9.80;100.00
30897;BME280;64229;52.246;21.054;2024-03-23T07:32:39;99471.06;;;9.92;100.00
30897;BME280;64229;52.246;21.054;2024-03-23T07:35:05;99472.13;;;9.91;100.00
30897;BME280;64229;52.246;21.054;2024-03-23T07:37:30;99471.13;;;9.81;100.00
30897;BME280;64229;52.246;21.054;2024-03-23T07:39:56;99460.34;;;9.68;100.00
30897;BME280;64229;52.246;21.054;2024-03-23T07:42:22;99459.84;;;9.61;100.00
30897;BME280;64229;52.246;21.054;2024-03-23T07:44:48;99458.47;;;9.68;100.00
30897;BME280;64229;52.246;21.054;2024-03-23T07:47:13;99460.50;;;9.76;100.00
30897;BME280;64229;52.246;21.054;2024-03-23T07:49:38;99459.44;;;9.77;100.00
30897;BME280;64229;52.246;21.054;2024-03-23T07:52:05;99453.56;;;9.80;100.00
30897;BME280;64229;52.246;21.054;2024-03-23T07:54:30;99448.69;;;9.88;100.00
30897;BME280;64229;52.246;21.054;2024-03-23T07:56:55;99439.44;;;9.80;100.00
30897;BME280;64229;52.246;21.054;2024-03-23T07:59:21;99435.97;;;9.79;100.00
30897;BME280;64229;52.246;21.054;2024-03-23T08:01:46;99425.56;;;9.78;100.00
30897;BME280;64229;52.246;21.054;2024-03-23T08:04:11;99424.56;;;9.74;100.00
30897;BME280;64229;52.246;21.054;2024-03-23T08:06:37;99420.22;;;9.83;100.00
30897;BME280;64229;52.246;21.054;2024-03-23T08:09:03;99415.16;;;9.81;100.00
30897;BME280;64229;52.246;21.054;2024-03-23T08:11:29;99392.25;;;9.80;100.00
30897;BME280;64229;52.246;21.054;2024-03-23T08:13:55;99407.00;;;9.97;100.00
30897;BME280;64229;52.246;21.054;2024-03-23T08:16:21;99410.44;;;10.02;100.00
30897;BME280;64229;52.246;21.054;2024-03-23T08:18:46;99400.28;;;10.04;100.00
30897;BME280;64229;52.246;21.054;2024-03-23T08:21:12;99401.84;;;10.10;100.00
30897;BME280;64229;52.246;21.054;2024-03-23T08:23:37;99406.94;;;10.31;100.00
30897;BME280;64229;52.246;21.054;2024-03-23T08:26:07;99408.97;;;10.44;100.00
30897;BME280;64229;52.246;21.054;2024-03-23T08:28:33;99400.16;;;10.43;100.00
30897;BME280;64229;52.246;21.054;2024-03-23T08:31:04;99408.00;;;10.35;100.00
30897;BME280;64229;52.246;21.054;2024-03-23T08:33:31;99398.31;;;10.15;100.00
30897;BME280;64229;52.246;21.054;2024-03-23T08:36:00;99399.31;;;10.24;100.00
30897;BME280;64229;52.246;21.054;2024-03-23T08:38:27;99388.16;;;10.17;100.00
30897;BME280;64229;52.246;21.054;2024-03-23T08:41:09;99392.59;;;10.27;100.00
30897;BME280;64229;52.246;21.054;2024-03-23T08:43:39;99385.47;;;10.22;100.00
30897;BME280;64229;52.246;21.054;2024-03-23T08:46:12;99372.13;;;10.22;100.00
30897;BME280;64229;52.246;21.054;2024-03-23T08:48:40;99354.78;;;10.20;100.00
30897;BME280;64229;52.246;21.054;2024-03-23T08:51:07;99357.47;;;10.62;100.00
30897;BME280;64229;52.246;21.054;2024-03-23T08:53:34;99356.75;;;11.13;100.00
30897;BME280;64229;52.246;21.054;2024-03-23T08:56:00;99355.22;;;11.91;100.00
30897;BME280;64229;52.246;21.054;2024-03-23T08:58:27;99347.97;;;12.47;100.00
30897;BME280;64229;52.246;21.054;2024-03-23T09:00:53;99352.50;;;13.18;100.00
30897;BME280;64229;52.246;21.054;2024-03-23T09:03:21;99356.06;;;13.81;100.00
30897;BME280;64229;52.246;21.054;2024-03-23T09:05:47;99346.28;;;14.16;100.00
30897;BME280;64229;52.246;21.054;2024-03-23T09:08:12;99347.69;;;14.13;100.00
30897;BME280;64229;52.246;21.054;2024-03-23T09:10:41;99347.91;;;14.34;99.12
30897;BME280;64229;52.246;21.054;2024-03-23T09:13:07;99334.50;;;14.43;97.50
30897;BME280;64229;52.246;21.054;2024-03-23T09:15:37;99339.56;;;14.36;99.17
30897;BME280;64229;52.246;21.054;2024-03-23T09:18:03;99332.94;;;14.42;97.48
30897;BME280;64229;52.246;21.054;2024-03-23T09:20:29;99322.38;;;14.45;95.69
30897;BME280;64229;52.246;21.054;2024-03-23T09:22:57;99311.91;;;14.27;97.47
30897;BME280;64229;52.246;21.054;2024-03-23T09:25:22;99307.47;;;14.22;97.81
30897;BME280;64229;52.246;21.054;2024-03-23T09:27:47;99307.63;;;14.17;98.63
30897;BME280;64229;52.246;21.054;2024-03-23T09:30:13;99301.66;;;14.37;97.77
30897;BME280;64229;52.246;21.054;2024-03-23T09:32:39;99294.44;;;14.55;96.27
30897;BME280;64229;52.246;21.054;2024-03-23T09:35:04;99288.09;;;14.42;96.22
30897;BME280;64229;52.246;21.054;2024-03-23T09:37:30;99292.19;;;14.40;94.22
30897;BME280;64229;52.246;21.054;2024-03-23T09:39:55;99288.84;;;14.34;95.20
30897;BME280;64229;52.246;21.054;2024-03-23T09:42:20;99281.22;;;14.10;96.29
30897;BME280;64229;52.246;21.054;2024-03-23T09:44:46;99282.28;;;13.83;96.87
30897;BME280;64229;52.246;21.054;2024-03-23T09:47:13;99282.03;;;13.63;98.39
30897;BME280;64229;52.246;21.054;2024-03-23T09:49:39;99272.75;;;13.38;100.00
30897;BME280;64229;52.246;21.054;2024-03-23T09:52:05;99266.53;;;13.20;100.00
30897;BME280;64229;52.246;21.054;2024-03-23T09:54:30;99271.88;;;13.20;100.00
30897;BME280;64229;52.246;21.054;2024-03-23T09:56:57;99262.44;;;13.22;100.00
30897;BME280;64229;52.246;21.054;2024-03-23T09:59:23;99264.13;;;13.41;100.00
30897;BME280;64229;52.246;21.054;2024-03-23T10:01:49;99258.22;;;13.70;99.97
30897;BME280;64229;52.246;21.054;2024-03-23T10:04:37;99246.66;;;14.09;96.49
30897;BME280;64229;52.246;21.054;2024-03-23T10:07:15;99246.19;;;14.07;96.38
30897;BME280;64229;52.246;21.054;2024-03-23T10:09:42;99237.56;;;14.27;95.37
30897;BME280;64229;52.246;21.054;2024-03-23T10:12:12;99226.38;;;14.51;93.08
30897;BME280;64229;52.246;21.054;2024-03-23T10:14:39;99214.22;;;14.62;92.13
30897;BME280;64229;52.246;21.054;2024-03-23T10:17:15;99209.94;;;14.53;93.73
30897;BME280;64229;52.246;21.054;2024-03-23T10:19:46;99193.38;;;14.68;94.00
30897;BME280;64229;52.246;21.054;2024-03-23T10:22:21;99178.34;;;14.41;92.71
30897;BME280;64229;52.246;21.054;2024-03-23T10:24:47;99179.63;;;14.52;93.94
30897;BME280;64229;52.246;21.054;2024-03-23T10:27:20;99172.03;;;14.63;93.90
30897;BME280;64229;52.246;21.054;2024-03-23T10:29:46;99160.03;;;14.69;92.25
30897;BME280;64229;52.246;21.054;2024-03-23T10:32:16;99150.41;;;14.59;91.33
30897;BME280;64229;52.246;21.054;2024-03-23T10:34:42;99149.75;;;14.80;91.58
30897;BME280;64229;52.246;21.054;2024-03-23T10:37:08;99152.75;;;14.69;89.79
30897;BME280;64229;52.246;21.054;2024-03-23T10:39:35;99133.78;;;14.74;89.11
30897;BME280;64229;52.246;21.054;2024-03-23T10:42:06;99131.56;;;14.76;89.90
30897;BME280;64229;52.246;21.054;2024-03-23T10:44:32;99123.34;;;14.73;88.48
30897;BME280;64229;52.246;21.054;2024-03-23T10:46:59;99125.28;;;14.64;89.12
30897;BME280;64229;52.246;21.054;2024-03-23T10:49:26;99108.50;;;14.75;89.29
30897;BME280;64229;52.246;21.054;2024-03-23T10:51:52;99109.16;;;14.55;88.13
30897;BME280;64229;52.246;21.054;2024-03-23T10:54:18;99116.16;;;14.48;89.03
30897;BME280;64229;52.246;21.054;2024-03-23T10:56:45;99115.47;;;14.68;88.63
30897;BME280;64229;52.246;21.054;2024-03-23T10:59:12;99083.88;;;14.65;88.38
30897;BME280;64229;52.246;21.054;2024-03-23T11:01:58;99094.28;;;14.66;88.76
30897;BME280;64229;52.246;21.054;2024-03-23T11:04:30;99073.47;;;14.63;88.55
30897;BME280;64229;52.246;21.054;2024-03-23T11:06:57;99068.63;;;14.86;88.45
30897;BME280;64229;52.246;21.054;2024-03-23T11:09:41;99074.59;;;15.00;87.65
30897;BME280;64229;52.246;21.054;2024-03-23T11:14:51;99076.16;;;15.31;82.87
30897;BME280;64229;52.246;21.054;2024-03-23T11:17:24;99057.75;;;15.21;82.68
30897;BME280;64229;52.246;21.054;2024-03-23T11:25:02;99059.59;;;15.50;80.51
30897;BME280;64229;52.246;21.054;2024-03-23T11:27:28;99057.97;;;15.57;80.13
30897;BME280;64229;52.246;21.054;2024-03-23T11:29:53;99051.53;;;15.50;81.27
30897;BME280;64229;52.246;21.054;2024-03-23T11:32:18;99029.69;;;15.51;81.20
30897;BME280;64229;52.246;21.054;2024-03-23T11:34:44;99045.16;;;15.63;80.46
30897;BME280;64229;52.246;21.054;2024-03-23T11:37:09;99036.59;;;15.82;79.02
30897;BME280;64229;52.246;21.054;2024-03-23T11:39:34;99033.47;;;15.80;78.95
30897;BME280;64229;52.246;21.054;2024-03-23T11:42:00;99016.03;;;15.65;79.13
30897;BME280;64229;52.246;21.054;2024-03-23T11:44:26;99005.81;;;15.50;79.76
30897;BME280;64229;52.246;21.054;2024-03-23T11:46:52;99023.72;;;15.75;79.15
30897;BME280;64229;52.246;21.054;2024-03-23T11:49:25;99012.13;;;15.96;76.19
30897;BME280;64229;52.246;21.054;2024-03-23T11:51:51;99011.66;;;15.94;76.20
30897;BME280;64229;52.246;21.054;2024-03-23T11:54:20;99005.25;;;15.86;76.04
30897;BME280;64229;52.246;21.054;2024-03-23T11:56:56;99002.63;;;15.77;76.58
30897;BME280;64229;52.246;21.054;2024-03-23T11:59:39;98994.75;;;15.72;76.71
30897;BME280;64229;52.246;21.054;2024-03-23T12:02:12;98993.22;;;15.83;73.66
30897;BME280;64229;52.246;21.054;2024-03-23T12:04:40;98964.59;;;15.67;71.82
30897;BME280;64229;52.246;21.054;2024-03-23T12:07:18;98983.47;;;15.79;71.43
30897;BME280;64229;52.246;21.054;2024-03-23T12:09:44;98981.13;;;15.77;71.06
30897;BME280;64229;52.246;21.054;2024-03-23T12:12:15;98972.44;;;15.72;71.53
30897;BME280;64229;52.246;21.054;2024-03-23T12:14:44;98966.16;;;15.68;71.13
30897;BME280;64229;52.246;21.054;2024-03-23T12:19:36;98960.72;;;15.76;70.76
30897;BME280;64229;52.246;21.054;2024-03-23T12:22:03;98963.38;;;15.97;68.29
30897;BME280;64229;52.246;21.054;2024-03-23T12:24:29;98952.72;;;16.01;67.66
30897;BME280;64229;52.246;21.054;2024-03-23T12:26:54;98957.19;;;15.97;67.74
30897;BME280;64229;52.246;21.054;2024-03-23T12:29:20;98942.34;;;15.78;69.01
30897;BME280;64229;52.246;21.054;2024-03-23T12:31:45;98946.59;;;15.79;68.66
30897;BME280;64229;52.246;21.054;2024-03-23T12:34:10;98933.59;;;15.81;69.14
30897;BME280;64229;52.246;21.054;2024-03-23T12:36:36;98929.94;;;15.86;68.50
30897;BME280;64229;52.246;21.054;2024-03-23T12:39:01;98924.06;;;15.84;66.56
30897;BME280;64229;52.246;21.054;2024-03-23T12:41:26;98924.25;;;15.67;66.93
30897;BME280;64229;52.246;21.054;2024-03-23T12:43:54;98926.84;;;15.63;66.57
30897;BME280;64229;52.246;21.054;2024-03-23T12:46:19;98923.06;;;15.55;66.22
30897;BME280;64229;52.246;21.054;2024-03-23T12:48:45;98917.88;;;15.50;66.14
30897;BME280;64229;52.246;21.054;2024-03-23T12:51:10;98913.94;;;15.48;66.51
30897;BME280;64229;52.246;21.054;2024-03-23T12:53:35;98905.97;;;15.39;67.31
30897;BME280;64229;52.246;21.054;2024-03-23T12:56:01;98901.44;;;15.31;68.01
30897;BME280;64229;52.246;21.054;2024-03-23T12:58:26;98885.25;;;15.19;68.39
30897;BME280;64229;52.246;21.054;2024-03-23T13:00:52;98891.00;;;15.29;69.09
30897;BME280;64229;52.246;21.054;2024-03-23T13:03:17;98893.84;;;15.33;69.03
30897;BME280;64229;52.246;21.054;2024-03-23T13:05:42;98882.31;;;15.32;69.76
30897;BME280;64229;52.246;21.054;2024-03-23T13:08:08;98871.63;;;15.24;70.20
30897;BME280;64229;52.246;21.054;2024-03-23T13:10:33;98860.69;;;15.08;71.19
30897;BME280;64229;52.246;21.054;2024-03-23T13:12:58;98864.50;;;15.07;71.65
30897;BME280;64229;52.246;21.054;2024-03-23T13:15:24;98856.19;;;15.21;70.57
30897;BME280;64229;52.246;21.054;2024-03-23T13:17:49;98850.53;;;15.14;70.95
30897;BME280;64229;52.246;21.054;2024-03-23T13:20:15;98842.66;;;15.09;71.70
30897;BME280;64229;52.246;21.054;2024-03-23T13:22:41;98845.56;;;15.03;72.37
30897;BME280;64229;52.246;21.054;2024-03-23T13:25:07;98835.66;;;14.95;72.95
30897;BME280;64229;52.246;21.054;2024-03-23T13:27:33;98831.13;;;14.87;73.61
30897;BME280;64229;52.246;21.054;2024-03-23T13:29:58;98835.28;;;14.85;74.33
30897;BME280;64229;52.246;21.054;2024-03-23T13:32:23;98823.63;;;14.81;74.78
30897;BME280;64229;52.246;21.054;2024-03-23T13:34:49;98805.47;;;14.77;74.87
30897;BME280;64229;52.246;21.054;2024-03-23T13:37:15;98804.03;;;14.80;74.61
30897;BME280;64229;52.246;21.054;2024-03-23T13:39:41;98802.59;;;14.83;74.68
30897;BME280;64229;52.246;21.054;2024-03-23T13:42:07;98798.47;;;14.85;74.65
30897;BME280;64229;52.246;21.054;2024-03-23T13:44:34;98790.22;;;14.90;74.80
30897;BME280;64229;52.246;21.054;2024-03-23T13:46:59;98774.88;;;14.91;74.74
30897;BME280;64229;52.246;21.054;2024-03-23T13:49:26;98779.91;;;14.92;74.68